createdAt,value
2022-08-05T00:01:36.570Z,21.80
2022-08-05T00:04:17.825Z,21.78
2022-08-05T00:06:47.084Z,21.74
2022-08-05T00:09:15.746Z,21.72
2022-08-05T00:11:49.525Z,21.75
2022-08-05T00:14:29.295Z,21.76
2022-08-05T00:17:02.094Z,21.67
2022-08-05T00:19:33.385Z,21.65
2022-08-05T00:22:11.512Z,21.67
2022-08-05T00:24:42.398Z,21.62
2022-08-05T00:27:16.600Z,21.66
2022-08-05T00:29:44.873Z,21.64
2022-08-05T00:32:15.015Z,21.61
2022-08-05T00:35:03.480Z,21.64
2022-08-05T00:37:51.018Z,21.70
2022-08-05T00:40:27.252Z,21.65
2022-08-05T00:43:01.030Z,21.61
2022-08-05T00:45:43.194Z,21.63
2022-08-05T00:48:13.450Z,21.64
2022-08-05T00:50:44.323Z,21.64
2022-08-05T00:54:00.520Z,21.68
2022-08-05T00:56:05.686Z,21.70
2022-08-05T00:58:37.107Z,21.71
2022-08-05T01:01:05.904Z,21.72
2022-08-05T01:03:38.055Z,21.72
2022-08-05T01:06:14.184Z,21.68
2022-08-05T01:08:44.842Z,21.66
2022-08-05T01:11:22.473Z,21.64
2022-08-05T01:14:15.240Z,21.70
2022-08-05T01:16:52.542Z,21.65
2022-08-05T01:19:36.715Z,21.53
2022-08-05T01:22:28.544Z,21.48
2022-08-05T01:25:17.527Z,21.46
2022-08-05T01:28:03.342Z,21.47
2022-08-05T01:30:36.810Z,21.46
2022-08-05T01:33:08.636Z,21.37
2022-08-05T01:35:50.810Z,21.37
2022-08-05T01:38:24.885Z,21.36
2022-08-05T01:41:01.340Z,21.32
2022-08-05T01:43:31.300Z,21.30
2022-08-05T01:46:07.096Z,21.24
2022-08-05T01:48:49.561Z,21.22
2022-08-05T01:51:19.193Z,21.22
2022-08-05T01:53:56.898Z,21.24
2022-08-05T01:58:18.879Z,21.16
2022-08-05T01:59:23.825Z,21.21
2022-08-05T02:01:57.775Z,21.20
2022-08-05T02:04:29.240Z,21.25
2022-08-05T02:06:59.130Z,21.25
2022-08-05T02:09:27.480Z,21.30
2022-08-05T02:12:05.178Z,21.32
2022-08-05T02:14:37.529Z,21.30
2022-08-05T02:17:16.863Z,21.26
2022-08-05T02:20:03.099Z,21.17
2022-08-05T02:22:36.530Z,21.17
2022-08-05T02:25:19.576Z,21.15
2022-08-05T02:27:59.905Z,21.14
2022-08-05T02:30:34.440Z,21.09
2022-08-05T02:33:04.983Z,21.09
2022-08-05T02:35:38.609Z,21.13
2022-08-05T02:38:19.285Z,21.25
2022-08-05T02:40:47.682Z,21.25
2022-08-05T02:43:18.342Z,21.29
2022-08-05T02:45:52.259Z,21.29
2022-08-05T02:48:29.159Z,21.37
2022-08-05T02:53:39.406Z,21.46
2022-08-05T02:58:43.695Z,21.39
2022-08-05T03:01:17.488Z,21.48
2022-08-05T03:04:02.162Z,21.59
2022-08-05T03:06:54.114Z,21.62
2022-08-05T03:09:27.217Z,21.77
2022-08-05T03:12:07.881Z,21.72
2022-08-05T03:14:45.563Z,21.86
2022-08-05T03:17:13.878Z,22.00
2022-08-05T03:19:42.300Z,22.03
2022-08-05T03:22:16.380Z,22.05
2022-08-05T03:24:50.733Z,22.06
2022-08-05T03:27:20.662Z,22.13
2022-08-05T03:30:08.333Z,22.22
2022-08-05T03:32:37.972Z,22.28
2022-08-05T03:35:06.367Z,22.34
2022-08-05T03:37:40.982Z,22.35
2022-08-05T03:40:31.453Z,22.28
2022-08-05T03:43:15.884Z,22.28
2022-08-05T03:45:55.232Z,22.33
2022-08-05T03:48:30.741Z,22.26
2022-08-05T03:52:38.380Z,22.31
2022-08-05T03:55:52.656Z,22.30
2022-08-05T03:57:29.058Z,22.34
2022-08-05T04:00:15.820Z,22.35
2022-08-05T04:02:52.044Z,22.43
2022-08-05T04:05:33.711Z,22.39
2022-08-05T04:08:05.717Z,22.45
2022-08-05T04:10:45.234Z,22.43
2022-08-05T04:13:13.564Z,22.53
2022-08-05T04:16:02.702Z,22.54
2022-08-05T04:18:29.095Z,22.47
2022-08-05T04:20:58.183Z,22.45
2022-08-05T04:24:05.273Z,22.51
2022-08-05T04:26:17.344Z,22.43
2022-08-05T04:28:51.177Z,22.36
2022-08-05T04:31:20.486Z,22.33
2022-08-05T04:34:17.450Z,22.36
2022-08-05T04:36:44.874Z,22.33
2022-08-05T04:39:14.695Z,22.34
2022-08-05T04:41:42.327Z,22.34
2022-08-05T04:44:11.818Z,22.34
2022-08-05T04:46:39.526Z,22.28
2022-08-05T04:49:12.373Z,22.28
2022-08-05T04:51:45.610Z,22.25
2022-08-05T04:54:14.893Z,22.33
2022-08-05T04:56:43.683Z,22.28
2022-08-05T04:59:14.034Z,22.35
2022-08-05T05:02:35.401Z,22.35
2022-08-05T05:04:47.489Z,22.49
2022-08-05T05:07:17.682Z,22.48
2022-08-05T05:09:45.640Z,22.49
2022-08-05T05:12:13.450Z,22.54
2022-08-05T05:14:50.550Z,22.65
2022-08-05T05:17:23.862Z,22.51
2022-08-05T05:19:56.490Z,22.65
2022-08-05T05:22:26.734Z,22.79
2022-08-05T05:24:58.341Z,22.91
2022-08-05T05:27:45.912Z,23.01
2022-08-05T05:30:31.203Z,22.99
2022-08-05T05:33:09.113Z,23.08
2022-08-05T05:35:48.262Z,23.03
2022-08-05T05:38:22.736Z,22.97
2022-08-05T05:40:56.377Z,23.00
2022-08-05T05:43:54.129Z,22.99
2022-08-05T05:46:17.442Z,22.94
2022-08-05T05:48:47.996Z,22.92
2022-08-05T05:51:24.358Z,22.84
2022-08-05T05:53:58.679Z,22.76
2022-08-05T05:56:33.396Z,22.84
2022-08-05T05:59:05.434Z,22.81
2022-08-05T06:01:37.923Z,22.84
2022-08-05T06:04:08.245Z,22.95
2022-08-05T06:06:41.774Z,22.97
2022-08-05T06:09:16.684Z,23.02
2022-08-05T06:11:59.553Z,23.15
2022-08-05T06:14:34.860Z,23.26
2022-08-05T06:17:24.300Z,23.34
2022-08-05T06:19:56.958Z,23.41
2022-08-05T06:22:33.598Z,23.44
2022-08-05T06:25:59.523Z,23.54
2022-08-05T06:28:12.551Z,23.74
2022-08-05T06:30:43.615Z,23.73
2022-08-05T06:33:11.282Z,23.73
2022-08-05T06:36:06.806Z,23.92
2022-08-05T06:38:36.721Z,24.06
2022-08-05T06:41:08.230Z,24.16
2022-08-05T06:43:57.835Z,24.37
2022-08-05T06:46:30.268Z,24.57
2022-08-05T06:49:00.974Z,24.65
2022-08-05T06:51:31.021Z,24.67
2022-08-05T06:54:03.938Z,24.81
2022-08-05T06:56:34.455Z,24.83
2022-08-05T06:59:08.332Z,24.79
2022-08-05T07:01:40.820Z,24.79
2022-08-05T07:04:10.826Z,24.79
2022-08-05T07:06:42.689Z,24.78
2022-08-05T07:09:10.505Z,24.86
2022-08-05T07:11:39.993Z,24.96
2022-08-05T07:14:29.538Z,25.15
2022-08-05T07:18:02.422Z,25.32
2022-08-05T07:20:31.536Z,25.44
2022-08-05T07:22:38.893Z,25.52
2022-08-05T07:25:22.023Z,25.60
2022-08-05T07:27:57.586Z,25.44
2022-08-05T07:30:31.876Z,25.41
2022-08-05T07:33:05.479Z,25.39
2022-08-05T07:36:03.643Z,25.59
2022-08-05T07:38:33.446Z,25.75
2022-08-05T07:42:07.027Z,25.64
2022-08-05T07:43:57.974Z,25.72
2022-08-05T07:46:31.886Z,25.79
2022-08-05T07:49:05.902Z,25.87
2022-08-05T07:51:40.856Z,25.81
2022-08-05T07:54:18.746Z,25.77
2022-08-05T07:57:01.879Z,25.74
2022-08-05T07:59:40.198Z,25.69
2022-08-05T08:02:16.744Z,25.72
2022-08-05T08:04:47.443Z,25.76
2022-08-05T08:07:15.546Z,25.84
2022-08-05T08:09:43.709Z,25.90
2022-08-05T08:12:35.182Z,25.41
2022-08-05T08:15:03.506Z,24.71
2022-08-05T08:17:33.060Z,24.34
2022-08-05T08:20:43.507Z,24.19
2022-08-05T08:23:03.124Z,24.05
2022-08-05T08:26:00.163Z,24.12
2022-08-05T08:28:36.311Z,24.11
2022-08-05T08:31:08.747Z,24.45
2022-08-05T08:33:38.008Z,24.85
2022-08-05T08:38:56.118Z,25.53
2022-08-05T08:41:52.656Z,25.73
2022-08-05T08:45:20.003Z,25.78
2022-08-05T08:47:47.198Z,25.90
2022-08-05T08:50:13.210Z,26.21
2022-08-05T08:52:56.885Z,26.51
2022-08-05T08:56:03.041Z,26.69
2022-08-05T08:58:15.537Z,26.79
2022-08-05T09:00:44.481Z,27.02
2022-08-05T09:03:16.143Z,27.18
2022-08-05T09:06:07.904Z,27.22
2022-08-05T09:08:35.764Z,27.47
2022-08-05T09:11:12.094Z,27.53
2022-08-05T09:14:09.312Z,27.68
2022-08-05T09:16:31.065Z,27.94
2022-08-05T09:18:59.287Z,28.03
2022-08-05T09:22:22.533Z,27.85
2022-08-05T09:24:16.468Z,27.73
2022-08-05T09:26:51.707Z,27.76
2022-08-05T09:29:20.002Z,27.94
2022-08-05T09:32:41.142Z,27.86
2022-08-05T09:34:56.182Z,27.92
2022-08-05T09:38:12.055Z,28.08
2022-08-05T09:40:30.006Z,27.95
2022-08-05T09:43:02.249Z,27.83
2022-08-05T09:46:07.853Z,27.73
2022-08-05T09:48:33.251Z,27.64
2022-08-05T09:51:14.987Z,27.63
2022-08-05T09:53:53.697Z,27.88
2022-08-05T09:56:27.699Z,28.17
2022-08-05T09:59:04.121Z,28.43
2022-08-05T10:01:34.458Z,28.41
2022-08-05T10:04:13.820Z,28.62
2022-08-05T10:06:59.400Z,28.81
2022-08-05T10:09:29.444Z,28.72
2022-08-05T10:12:30.604Z,28.43
2022-08-05T10:15:20.916Z,27.96
2022-08-05T10:18:35.554Z,27.61
2022-08-05T10:21:08.486Z,27.05
2022-08-05T10:24:00.055Z,26.36
2022-08-05T10:26:31.609Z,25.33
2022-08-05T10:29:00.851Z,24.70
2022-08-05T10:32:52.564Z,23.72
2022-08-05T10:34:16.989Z,22.83
2022-08-05T10:36:45.806Z,21.84
2022-08-05T10:40:04.134Z,20.72
2022-08-05T10:42:18.484Z,20.42
2022-08-05T10:44:54.460Z,20.36
2022-08-05T10:47:32.324Z,20.35
2022-08-05T10:50:31.873Z,20.28
2022-08-05T10:52:58.624Z,20.43
2022-08-05T10:55:27.831Z,20.46
2022-08-05T10:58:15.570Z,20.37
2022-08-05T11:00:48.457Z,20.32
2022-08-05T11:03:26.979Z,20.31
2022-08-05T11:06:16.252Z,20.29
2022-08-05T11:09:32.115Z,20.54
2022-08-05T11:12:42.281Z,20.71
2022-08-05T11:15:19.976Z,20.92
2022-08-05T11:18:07.473Z,21.08
2022-08-05T11:20:46.411Z,21.07
2022-08-05T11:24:05.750Z,21.34
2022-08-05T11:26:35.305Z,21.54
2022-08-05T11:29:11.879Z,21.72
2022-08-05T11:31:58.293Z,21.83
2022-08-05T11:34:37.977Z,21.99
2022-08-05T11:38:29.105Z,22.23
2022-08-05T11:40:00.224Z,22.39
2022-08-05T11:42:40.269Z,22.43
2022-08-05T11:45:23.366Z,22.42
2022-08-05T11:47:57.944Z,22.37
2022-08-05T11:50:26.510Z,22.54
2022-08-05T11:52:58.023Z,22.57
2022-08-05T11:55:32.224Z,22.55
2022-08-05T11:58:10.289Z,22.73
2022-08-05T12:00:41.524Z,22.90
2022-08-05T12:03:28.570Z,22.86
2022-08-05T12:06:03.098Z,22.90
2022-08-05T12:08:39.850Z,22.95
2022-08-05T12:11:20.747Z,22.90
2022-08-05T12:14:04.050Z,22.84
2022-08-05T12:16:38.366Z,22.91
2022-08-05T12:19:08.676Z,22.92
2022-08-05T12:21:43.954Z,22.91
2022-08-05T12:24:19.470Z,22.77
2022-08-05T12:26:52.783Z,22.65
2022-08-05T12:29:27.458Z,22.58
2022-08-05T12:32:01.813Z,22.57
2022-08-05T12:34:37.055Z,22.58
2022-08-05T12:37:17.628Z,22.51
2022-08-05T12:39:53.946Z,22.53
2022-08-05T12:42:25.420Z,22.59
2022-08-05T12:45:01.371Z,22.59
2022-08-05T12:47:31.036Z,22.61
2022-08-05T12:50:03.697Z,22.50
2022-08-05T12:52:42.470Z,22.61
2022-08-05T12:55:22.139Z,22.56
2022-08-05T12:58:49.408Z,22.71
2022-08-05T13:02:02.519Z,22.88
2022-08-05T13:03:41.786Z,22.91
2022-08-05T13:06:17.785Z,23.03
2022-08-05T13:08:52.198Z,23.19
2022-08-05T13:12:01.873Z,23.20
2022-08-05T13:14:19.363Z,23.19
2022-08-05T13:16:56.584Z,23.30
2022-08-05T13:19:51.000Z,23.45
2022-08-05T13:22:29.138Z,23.51
2022-08-05T13:25:05.838Z,23.71
2022-08-05T13:27:41.189Z,23.69
2022-08-05T13:30:34.254Z,23.70
2022-08-05T13:33:01.647Z,23.80
2022-08-05T13:35:43.191Z,23.83
2022-08-05T13:38:28.110Z,23.82
2022-08-05T13:41:00.290Z,23.83
2022-08-05T13:43:43.990Z,23.87
2022-08-05T13:46:18.523Z,23.89
2022-08-05T13:49:03.938Z,23.92
2022-08-05T13:51:36.499Z,23.97
2022-08-05T13:54:12.621Z,23.97
2022-08-05T13:56:45.064Z,24.00
2022-08-05T13:59:27.671Z,24.14
2022-08-05T14:02:00.634Z,24.11
2022-08-05T14:04:52.373Z,24.09
2022-08-05T14:07:26.056Z,23.97
2022-08-05T14:10:18.955Z,23.85
2022-08-05T14:12:57.528Z,23.70
2022-08-05T14:16:04.904Z,23.64
2022-08-05T14:18:17.360Z,23.60
2022-08-05T14:20:48.164Z,23.42
2022-08-05T14:23:19.240Z,23.38
2022-08-05T14:25:59.016Z,23.34
2022-08-05T14:28:30.802Z,23.28
2022-08-05T14:31:00.535Z,23.21
2022-08-05T14:33:56.561Z,23.17
2022-08-05T14:36:20.532Z,23.03
2022-08-05T14:38:50.489Z,22.76
2022-08-05T14:41:18.849Z,22.10
2022-08-05T14:43:53.873Z,21.48
2022-08-05T14:46:29.731Z,21.10
2022-08-05T14:49:06.400Z,20.98
2022-08-05T14:51:42.513Z,20.62
2022-08-05T14:54:30.026Z,20.55
2022-08-05T14:57:00.247Z,20.74
2022-08-05T14:59:35.851Z,20.81
2022-08-05T15:02:15.170Z,20.71
2022-08-05T15:04:44.923Z,20.53
2022-08-05T15:08:08.693Z,20.49
2022-08-05T15:10:03.627Z,20.53
2022-08-05T15:12:51.584Z,20.81
2022-08-05T15:15:55.505Z,21.91
2022-08-05T15:18:08.344Z,22.63
2022-08-05T15:20:37.395Z,23.20
2022-08-05T15:23:07.025Z,23.24
2022-08-05T15:25:41.111Z,22.96
2022-08-05T15:28:19.492Z,22.55
2022-08-05T15:30:52.920Z,22.30
2022-08-05T15:34:05.979Z,22.24
2022-08-05T15:36:17.344Z,22.52
2022-08-05T15:41:03.177Z,22.32
2022-08-05T15:41:55.858Z,22.24
2022-08-05T15:44:30.047Z,22.06
2022-08-05T15:47:00.908Z,21.78
2022-08-05T15:49:48.183Z,21.76
2022-08-05T15:52:29.240Z,21.63
2022-08-05T15:55:07.923Z,21.74
2022-08-05T15:57:38.381Z,21.81
2022-08-05T16:00:08.886Z,21.77
2022-08-05T16:02:37.010Z,21.61
2022-08-05T16:05:05.815Z,21.52
2022-08-05T16:07:37.916Z,21.63
2022-08-05T16:10:14.146Z,21.44
2022-08-05T16:12:42.405Z,21.49
2022-08-05T16:15:10.492Z,21.52
2022-08-05T16:17:51.094Z,21.49
2022-08-05T16:20:26.203Z,21.38
2022-08-05T16:22:55.926Z,21.37
2022-08-05T16:25:32.332Z,21.32
2022-08-05T16:28:05.882Z,21.38
2022-08-05T16:30:36.152Z,21.31
2022-08-05T16:33:04.138Z,21.33
2022-08-05T16:35:33.652Z,21.44
2022-08-05T16:38:15.258Z,21.47
2022-08-05T16:40:51.773Z,21.44
2022-08-05T16:43:32.406Z,21.49
2022-08-05T16:46:05.929Z,21.48
2022-08-05T16:48:38.443Z,21.47
2022-08-05T16:51:09.041Z,21.44
2022-08-05T16:54:06.270Z,21.48
2022-08-05T16:58:58.490Z,21.40
2022-08-05T17:01:26.643Z,21.32
2022-08-05T17:03:54.313Z,21.31
2022-08-05T17:06:24.517Z,21.44
2022-08-05T17:08:54.311Z,21.45
2022-08-05T17:11:23.903Z,21.45
2022-08-05T17:14:00.558Z,21.41
2022-08-05T17:16:38.012Z,21.27
2022-08-05T17:19:07.278Z,21.34
2022-08-05T17:21:37.024Z,21.37
2022-08-05T17:24:30.085Z,21.37
2022-08-05T17:26:56.378Z,21.25
2022-08-05T17:29:39.926Z,21.32
2022-08-05T17:32:11.856Z,21.37
2022-08-05T17:34:48.178Z,21.24
2022-08-05T17:37:40.088Z,21.22
2022-08-05T17:40:10.810Z,21.25
2022-08-05T17:42:41.570Z,21.30
2022-08-05T17:45:20.596Z,21.30
2022-08-05T17:47:54.609Z,21.36
2022-08-05T17:50:30.371Z,21.36
2022-08-05T17:53:00.379Z,21.40
2022-08-05T17:55:38.332Z,21.23
2022-08-05T17:58:12.704Z,21.17
2022-08-05T18:00:45.074Z,21.19
2022-08-05T18:06:12.086Z,21.22
2022-08-05T18:08:45.782Z,21.20
2022-08-05T18:11:24.626Z,21.14
2022-08-05T18:14:07.330Z,21.19
2022-08-05T18:16:50.981Z,21.16
2022-08-05T18:19:22.798Z,21.15
2022-08-05T18:22:08.523Z,21.13
2022-08-05T18:24:40.096Z,21.15
2022-08-05T18:27:18.126Z,21.21
2022-08-05T18:29:54.008Z,21.19
2022-08-05T18:32:28.321Z,21.11
2022-08-05T18:34:58.058Z,21.10
2022-08-05T18:37:33.625Z,21.11
2022-08-05T18:41:50.554Z,21.08
2022-08-05T18:42:57.170Z,21.08
2022-08-05T18:45:24.894Z,21.13
2022-08-05T18:47:56.759Z,21.05
2022-08-05T18:50:46.831Z,21.02
2022-08-05T18:53:22.212Z,21.06
2022-08-05T18:55:52.228Z,21.07
2022-08-05T18:58:28.887Z,21.09
2022-08-05T19:00:57.199Z,21.15
2022-08-05T19:03:53.493Z,21.01
2022-08-05T19:06:21.501Z,20.96
2022-08-05T19:08:50.755Z,20.97
2022-08-05T19:11:28.047Z,20.97
2022-08-05T19:14:01.149Z,20.98
2022-08-05T19:16:46.576Z,20.89
2022-08-05T19:19:20.762Z,20.93
2022-08-05T19:21:48.825Z,20.95
2022-08-05T19:24:34.588Z,20.93
2022-08-05T19:27:04.429Z,20.88
2022-08-05T19:29:35.764Z,20.88
2022-08-05T19:32:11.085Z,20.82
2022-08-05T19:34:39.268Z,20.82
2022-08-05T19:37:07.279Z,20.74
2022-08-05T19:39:45.888Z,20.83
2022-08-05T19:42:35.553Z,20.86
2022-08-05T19:45:05.671Z,20.89
2022-08-05T19:47:37.214Z,20.88
2022-08-05T19:50:07.739Z,20.91
2022-08-05T19:52:38.403Z,20.83
2022-08-05T19:55:06.977Z,20.83
2022-08-05T19:58:19.531Z,20.83
2022-08-05T20:00:42.588Z,20.83
2022-08-05T20:03:11.164Z,20.75
2022-08-05T20:05:50.104Z,20.81
2022-08-05T20:08:20.493Z,20.78
2022-08-05T20:10:53.303Z,20.80
2022-08-05T20:13:30.298Z,20.68
2022-08-05T20:16:10.097Z,20.70
2022-08-05T20:18:38.591Z,20.71
2022-08-05T20:21:07.273Z,20.68
2022-08-05T20:23:39.432Z,20.68
2022-08-05T20:26:18.758Z,20.67
2022-08-05T20:28:48.892Z,20.66
2022-08-05T20:31:18.018Z,20.68
2022-08-05T20:33:50.448Z,20.66
2022-08-05T20:36:19.135Z,20.66
2022-08-05T20:38:53.335Z,20.61
2022-08-05T20:41:23.866Z,20.61
2022-08-05T20:43:58.729Z,20.61
2022-08-05T20:46:29.611Z,20.69
2022-08-05T20:48:57.172Z,20.67
2022-08-05T20:51:24.790Z,20.70
2022-08-05T20:53:55.087Z,20.74
2022-08-05T20:56:31.856Z,20.73
2022-08-05T20:59:14.217Z,20.79
2022-08-05T21:01:52.126Z,20.81
2022-08-05T21:04:19.827Z,20.81
2022-08-05T21:06:47.463Z,20.82
2022-08-05T21:09:16.052Z,20.74
2022-08-05T21:12:09.788Z,20.82
2022-08-05T21:14:34.760Z,20.82
2022-08-05T21:17:05.383Z,20.79
2022-08-05T21:19:46.955Z,20.74
2022-08-05T21:22:23.112Z,20.74
2022-08-05T21:24:54.370Z,20.69
2022-08-05T21:27:27.119Z,20.66
2022-08-05T21:29:56.493Z,20.72
2022-08-05T21:32:27.156Z,20.65
2022-08-05T21:35:16.889Z,20.64
2022-08-05T21:37:47.601Z,20.61
2022-08-05T21:40:23.298Z,20.60
2022-08-05T21:42:54.384Z,20.59
2022-08-05T21:45:51.830Z,20.57
2022-08-05T21:48:14.586Z,20.60
2022-08-05T21:50:54.349Z,20.60
2022-08-05T21:53:24.861Z,20.59
2022-08-05T21:56:06.237Z,20.57
2022-08-05T21:58:56.992Z,20.58
2022-08-05T22:01:26.537Z,20.61
2022-08-05T22:03:54.375Z,20.60
2022-08-05T22:06:35.159Z,20.58
2022-08-05T22:09:13.082Z,20.57
2022-08-05T22:11:42.612Z,20.58
2022-08-05T22:14:33.030Z,20.59
2022-08-05T22:17:04.991Z,20.56
2022-08-05T22:20:02.125Z,20.54
2022-08-05T22:22:27.577Z,20.58
2022-08-05T22:25:18.263Z,20.58
2022-08-05T22:28:08.359Z,20.58
2022-08-05T22:30:56.725Z,20.60
2022-08-05T22:33:57.025Z,20.56
2022-08-05T22:36:15.816Z,20.67
2022-08-05T22:38:48.284Z,20.65
2022-08-05T22:42:05.143Z,20.63
2022-08-05T22:44:08.741Z,20.68
2022-08-05T22:46:39.799Z,20.60
2022-08-05T22:50:18.061Z,20.57
2022-08-05T22:52:04.364Z,20.58
2022-08-05T22:54:32.968Z,20.56
2022-08-05T22:57:00.772Z,20.55
2022-08-05T22:59:43.582Z,20.54
2022-08-05T23:02:22.362Z,20.58
2022-08-05T23:04:57.736Z,20.55
2022-08-05T23:07:25.377Z,20.59
2022-08-05T23:10:01.262Z,20.62
2022-08-05T23:12:33.302Z,20.64
2022-08-05T23:15:08.925Z,20.67
2022-08-05T23:18:02.348Z,20.67
2022-08-05T23:20:25.207Z,20.77
2022-08-05T23:22:55.926Z,20.77
2022-08-05T23:25:53.411Z,20.75
2022-08-05T23:28:12.228Z,20.70
2022-08-05T23:30:43.728Z,20.72
2022-08-05T23:33:25.674Z,20.72
2022-08-05T23:35:55.130Z,20.76
2022-08-05T23:38:26.700Z,20.71
2022-08-05T23:40:56.199Z,20.67
2022-08-05T23:43:49.652Z,20.63
2022-08-05T23:46:19.566Z,20.66
2022-08-05T23:49:00.325Z,20.65
2022-08-05T23:51:54.908Z,20.70
2022-08-05T23:54:26.109Z,20.70
2022-08-05T23:57:03.863Z,20.69
